sensor_id;sensor_type;location;lat;lon;timestamp;P1;durP1;ratioP1;P2;durP2;ratioP2
40022;SDS011;25713;-35.352;149.036;2024-02-26T00:01:40;4.30;;;2.85;;
40022;SDS011;25713;-35.352;149.036;2024-02-26T00:04:10;4.35;;;2.72;;
40022;SDS011;25713;-35.352;149.036;2024-02-26T00:06:39;3.60;;;2.50;;
40022;SDS011;25713;-35.352;149.036;2024-02-26T00:09:09;3.63;;;2.70;;
40022;SDS011;25713;-35.352;149.036;2024-02-26T00:11:38;3.63;;;2.80;;
40022;SDS011;25713;-35.352;149.036;2024-02-26T00:14:08;4.00;;;2.83;;
40022;SDS011;25713;-35.352;149.036;2024-02-26T00:16:40;3.97;;;2.77;;
40022;SDS011;25713;-35.352;149.036;2024-02-26T00:19:09;4.32;;;3.08;;
40022;SDS011;25713;-35.352;149.036;2024-02-26T00:21:40;6.55;;;2.80;;
40022;SDS011;25713;-35.352;149.036;2024-02-26T00:24:09;7.03;;;3.05;;
40022;SDS011;25713;-35.352;149.036;2024-02-26T00:26:39;3.78;;;2.75;;
40022;SDS011;25713;-35.352;149.036;2024-02-26T00:29:09;5.97;;;2.90;;
40022;SDS011;25713;-35.352;149.036;2024-02-26T00:31:40;5.25;;;3.25;;
40022;SDS011;25713;-35.352;149.036;2024-02-26T00:34:10;4.72;;;3.10;;
40022;SDS011;25713;-35.352;149.036;2024-02-26T00:36:39;4.97;;;2.90;;
40022;SDS011;25713;-35.352;149.036;2024-02-26T00:39:09;4.47;;;3.10;;
40022;SDS011;25713;-35.352;149.036;2024-02-26T00:41:39;6.00;;;2.97;;
40022;SDS011;25713;-35.352;149.036;2024-02-26T00:44:09;6.00;;;2.83;;
40022;SDS011;25713;-35.352;149.036;2024-02-26T00:46:40;4.78;;;2.97;;
40022;SDS011;25713;-35.352;149.036;2024-02-26T00:49:10;3.42;;;2.78;;
40022;SDS011;25713;-35.352;149.036;2024-02-26T00:51:39;5.97;;;3.33;;
40022;SDS011;25713;-35.352;149.036;2024-02-26T00:54:09;3.33;;;2.80;;
40022;SDS011;25713;-35.352;149.036;2024-02-26T00:56:38;4.18;;;2.90;;
40022;SDS011;25713;-35.352;149.036;2024-02-26T00:59:07;4.20;;;2.75;;
40022;SDS011;25713;-35.352;149.036;2024-02-26T01:01:38;4.55;;;3.00;;
40022;SDS011;25713;-35.352;149.036;2024-02-26T01:04:08;5.80;;;2.95;;
40022;SDS011;25713;-35.352;149.036;2024-02-26T01:06:37;4.88;;;3.78;;
40022;SDS011;25713;-35.352;149.036;2024-02-26T01:09:07;3.53;;;2.83;;
40022;SDS011;25713;-35.352;149.036;2024-02-26T01:11:36;5.75;;;4.57;;
40022;SDS011;25713;-35.352;149.036;2024-02-26T01:14:05;9.20;;;5.30;;
40022;SDS011;25713;-35.352;149.036;2024-02-26T01:16:35;6.90;;;3.60;;
40022;SDS011;25713;-35.352;149.036;2024-02-26T01:19:06;5.17;;;3.83;;
40022;SDS011;25713;-35.352;149.036;2024-02-26T01:21:36;3.65;;;3.15;;
40022;SDS011;25713;-35.352;149.036;2024-02-26T01:24:05;5.07;;;3.10;;
40022;SDS011;25713;-35.352;149.036;2024-02-26T01:26:35;3.97;;;2.90;;
40022;SDS011;25713;-35.352;149.036;2024-02-26T01:29:04;6.90;;;3.42;;
40022;SDS011;25713;-35.352;149.036;2024-02-26T01:31:34;5.22;;;3.00;;
40022;SDS011;25713;-35.352;149.036;2024-02-26T01:34:05;5.43;;;2.90;;
40022;SDS011;25713;-35.352;149.036;2024-02-26T01:36:35;6.37;;;2.83;;
40022;SDS011;25713;-35.352;149.036;2024-02-26T01:39:04;6.75;;;2.60;;
40022;SDS011;25713;-35.352;149.036;2024-02-26T01:41:33;4.22;;;2.90;;
40022;SDS011;25713;-35.352;149.036;2024-02-26T01:44:03;5.40;;;3.05;;
40022;SDS011;25713;-35.352;149.036;2024-02-26T01:46:33;6.75;;;2.92;;
40022;SDS011;25713;-35.352;149.036;2024-02-26T01:49:05;7.88;;;2.90;;
40022;SDS011;25713;-35.352;149.036;2024-02-26T01:51:36;5.80;;;3.00;;
40022;SDS011;25713;-35.352;149.036;2024-02-26T01:54:06;3.55;;;2.70;;
40022;SDS011;25713;-35.352;149.036;2024-02-26T01:56:37;5.75;;;2.80;;
40022;SDS011;25713;-35.352;149.036;2024-02-26T01:59:07;4.47;;;3.17;;
40022;SDS011;25713;-35.352;149.036;2024-02-26T02:01:38;3.67;;;2.50;;
40022;SDS011;25713;-35.352;149.036;2024-02-26T02:04:13;3.83;;;2.58;;
40022;SDS011;25713;-35.352;149.036;2024-02-26T02:06:44;7.57;;;2.72;;
40022;SDS011;25713;-35.352;149.036;2024-02-26T02:09:15;3.70;;;2.60;;
40022;SDS011;25713;-35.352;149.036;2024-02-26T02:11:45;3.63;;;2.42;;
40022;SDS011;25713;-35.352;149.036;2024-02-26T02:14:16;5.70;;;2.40;;
40022;SDS011;25713;-35.352;149.036;2024-02-26T02:16:45;6.57;;;2.45;;
40022;SDS011;25713;-35.352;149.036;2024-02-26T02:19:17;3.30;;;2.30;;
40022;SDS011;25713;-35.352;149.036;2024-02-26T02:21:48;6.38;;;2.30;;
40022;SDS011;25713;-35.352;149.036;2024-02-26T02:24:18;5.63;;;2.40;;
40022;SDS011;25713;-35.352;149.036;2024-02-26T02:26:48;5.25;;;2.40;;
40022;SDS011;25713;-35.352;149.036;2024-02-26T02:29:17;3.25;;;2.28;;
40022;SDS011;25713;-35.352;149.036;2024-02-26T02:31:47;4.13;;;2.10;;
40022;SDS011;25713;-35.352;149.036;2024-02-26T02:34:16;3.80;;;2.10;;
40022;SDS011;25713;-35.352;149.036;2024-02-26T02:36:51;2.75;;;2.08;;
40022;SDS011;25713;-35.352;149.036;2024-02-26T02:39:21;5.05;;;2.40;;
40022;SDS011;25713;-35.352;149.036;2024-02-26T02:41:51;4.13;;;2.10;;
40022;SDS011;25713;-35.352;149.036;2024-02-26T02:44:20;5.07;;;2.72;;
40022;SDS011;25713;-35.352;149.036;2024-02-26T02:46:50;2.13;;;1.83;;
40022;SDS011;25713;-35.352;149.036;2024-02-26T02:49:19;4.22;;;2.17;;
40022;SDS011;25713;-35.352;149.036;2024-02-26T02:51:49;5.35;;;2.42;;
40022;SDS011;25713;-35.352;149.036;2024-02-26T02:54:20;7.28;;;2.53;;
40022;SDS011;25713;-35.352;149.036;2024-02-26T02:56:50;4.47;;;2.65;;
40022;SDS011;25713;-35.352;149.036;2024-02-26T02:59:19;3.92;;;2.33;;
40022;SDS011;25713;-35.352;149.036;2024-02-26T03:01:49;5.00;;;2.00;;
40022;SDS011;25713;-35.352;149.036;2024-02-26T03:04:18;3.60;;;2.58;;
40022;SDS011;25713;-35.352;149.036;2024-02-26T03:06:48;7.22;;;2.58;;
40022;SDS011;25713;-35.352;149.036;2024-02-26T03:09:19;2.80;;;2.15;;
40022;SDS011;25713;-35.352;149.036;2024-02-26T03:11:49;2.83;;;2.00;;
40022;SDS011;25713;-35.352;149.036;2024-02-26T03:14:18;3.25;;;2.30;;
40022;SDS011;25713;-35.352;149.036;2024-02-26T03:16:48;3.80;;;2.10;;
40022;SDS011;25713;-35.352;149.036;2024-02-26T03:19:17;3.90;;;2.20;;
40022;SDS011;25713;-35.352;149.036;2024-02-26T03:21:47;6.10;;;2.40;;
40022;SDS011;25713;-35.352;149.036;2024-02-26T03:24:16;4.28;;;2.47;;
40022;SDS011;25713;-35.352;149.036;2024-02-26T03:26:48;4.43;;;2.33;;
40022;SDS011;25713;-35.352;149.036;2024-02-26T03:29:18;4.00;;;2.30;;
40022;SDS011;25713;-35.352;149.036;2024-02-26T03:31:48;4.93;;;2.15;;
40022;SDS011;25713;-35.352;149.036;2024-02-26T03:34:17;3.50;;;1.90;;
40022;SDS011;25713;-35.352;149.036;2024-02-26T03:36:47;4.65;;;2.28;;
40022;SDS011;25713;-35.352;149.036;2024-02-26T03:39:16;5.72;;;2.40;;
40022;SDS011;25713;-35.352;149.036;2024-02-26T03:41:48;3.42;;;2.10;;
40022;SDS011;25713;-35.352;149.036;2024-02-26T03:44:17;5.57;;;2.10;;
40022;SDS011;25713;-35.352;149.036;2024-02-26T03:46:47;4.40;;;2.30;;
40022;SDS011;25713;-35.352;149.036;2024-02-26T03:49:16;4.63;;;2.15;;
40022;SDS011;25713;-35.352;149.036;2024-02-26T03:51:45;5.15;;;2.00;;
40022;SDS011;25713;-35.352;149.036;2024-02-26T03:54:15;4.57;;;2.40;;
40022;SDS011;25713;-35.352;149.036;2024-02-26T03:56:46;2.75;;;2.10;;
40022;SDS011;25713;-35.352;149.036;2024-02-26T03:59:16;3.05;;;2.15;;
40022;SDS011;25713;-35.352;149.036;2024-02-26T04:01:45;2.78;;;2.10;;
40022;SDS011;25713;-35.352;149.036;2024-02-26T04:04:15;4.00;;;2.13;;
40022;SDS011;25713;-35.352;149.036;2024-02-26T04:06:45;3.33;;;1.98;;
40022;SDS011;25713;-35.352;149.036;2024-02-26T04:09:14;4.88;;;2.20;;
40022;SDS011;25713;-35.352;149.036;2024-02-26T04:11:44;3.28;;;2.22;;
40022;SDS011;25713;-35.352;149.036;2024-02-26T04:14:15;3.28;;;2.33;;
40022;SDS011;25713;-35.352;149.036;2024-02-26T04:16:44;3.83;;;2.20;;
40022;SDS011;25713;-35.352;149.036;2024-02-26T04:19:14;4.07;;;2.03;;
40022;SDS011;25713;-35.352;149.036;2024-02-26T04:21:43;3.00;;;2.15;;
40022;SDS011;25713;-35.352;149.036;2024-02-26T04:24:13;5.82;;;2.15;;
40022;SDS011;25713;-35.352;149.036;2024-02-26T04:26:42;5.20;;;2.22;;
40022;SDS011;25713;-35.352;149.036;2024-02-26T04:29:14;4.05;;;2.10;;
40022;SDS011;25713;-35.352;149.036;2024-02-26T04:31:44;3.40;;;2.10;;
40022;SDS011;25713;-35.352;149.036;2024-02-26T04:34:13;5.45;;;2.30;;
40022;SDS011;25713;-35.352;149.036;2024-02-26T04:36:43;3.65;;;2.20;;
40022;SDS011;25713;-35.352;149.036;2024-02-26T04:39:12;5.15;;;2.08;;
40022;SDS011;25713;-35.352;149.036;2024-02-26T04:41:42;6.35;;;2.33;;
40022;SDS011;25713;-35.352;149.036;2024-02-26T04:44:11;4.07;;;2.10;;
40022;SDS011;25713;-35.352;149.036;2024-02-26T04:46:43;4.57;;;2.17;;
40022;SDS011;25713;-35.352;149.036;2024-02-26T04:49:12;3.78;;;2.20;;
40022;SDS011;25713;-35.352;149.036;2024-02-26T04:51:42;6.15;;;2.00;;
40022;SDS011;25713;-35.352;149.036;2024-02-26T04:54:11;5.45;;;2.17;;
40022;SDS011;25713;-35.352;149.036;2024-02-26T04:56:41;4.32;;;1.98;;
40022;SDS011;25713;-35.352;149.036;2024-02-26T04:59:10;4.32;;;2.05;;
40022;SDS011;25713;-35.352;149.036;2024-02-26T05:01:41;4.45;;;2.15;;
40022;SDS011;25713;-35.352;149.036;2024-02-26T05:04:11;3.78;;;2.10;;
40022;SDS011;25713;-35.352;149.036;2024-02-26T05:06:40;4.35;;;2.28;;
40022;SDS011;25713;-35.352;149.036;2024-02-26T05:09:10;3.55;;;2.25;;
40022;SDS011;25713;-35.352;149.036;2024-02-26T05:11:39;4.47;;;2.13;;
40022;SDS011;25713;-35.352;149.036;2024-02-26T05:14:09;2.97;;;2.03;;
40022;SDS011;25713;-35.352;149.036;2024-02-26T05:16:38;6.30;;;2.40;;
40022;SDS011;25713;-35.352;149.036;2024-02-26T05:19:10;2.90;;;1.90;;
40022;SDS011;25713;-35.352;149.036;2024-02-26T05:21:39;5.38;;;2.00;;
40022;SDS011;25713;-35.352;149.036;2024-02-26T05:24:08;6.60;;;2.05;;
40022;SDS011;25713;-35.352;149.036;2024-02-26T05:26:38;3.20;;;2.17;;
40022;SDS011;25713;-35.352;149.036;2024-02-26T05:29:07;5.25;;;2.30;;
40022;SDS011;25713;-35.352;149.036;2024-02-26T05:31:37;5.18;;;2.20;;
40022;SDS011;25713;-35.352;149.036;2024-02-26T05:34:08;4.47;;;2.25;;
40022;SDS011;25713;-35.352;149.036;2024-02-26T05:36:37;2.28;;;1.90;;
40022;SDS011;25713;-35.352;149.036;2024-02-26T05:39:07;5.93;;;2.15;;
40022;SDS011;25713;-35.352;149.036;2024-02-26T05:41:36;3.35;;;2.08;;
40022;SDS011;25713;-35.352;149.036;2024-02-26T05:44:06;8.85;;;2.15;;
40022;SDS011;25713;-35.352;149.036;2024-02-26T05:46:35;4.78;;;2.20;;
40022;SDS011;25713;-35.352;149.036;2024-02-26T05:49:04;6.10;;;2.10;;
40022;SDS011;25713;-35.352;149.036;2024-02-26T05:51:36;3.45;;;2.20;;
40022;SDS011;25713;-35.352;149.036;2024-02-26T05:54:05;6.75;;;2.17;;
40022;SDS011;25713;-35.352;149.036;2024-02-26T05:56:35;4.10;;;1.90;;
40022;SDS011;25713;-35.352;149.036;2024-02-26T05:59:04;3.85;;;2.22;;
40022;SDS011;25713;-35.352;149.036;2024-02-26T06:01:33;5.25;;;2.50;;
40022;SDS011;25713;-35.352;149.036;2024-02-26T06:04:03;3.30;;;2.10;;
40022;SDS011;25713;-35.352;149.036;2024-02-26T06:06:34;3.45;;;1.92;;
40022;SDS011;25713;-35.352;149.036;2024-02-26T06:09:04;5.00;;;2.33;;
40022;SDS011;25713;-35.352;149.036;2024-02-26T06:11:33;4.05;;;1.83;;
40022;SDS011;25713;-35.352;149.036;2024-02-26T06:14:03;3.17;;;2.00;;
40022;SDS011;25713;-35.352;149.036;2024-02-26T06:16:32;3.83;;;1.98;;
40022;SDS011;25713;-35.352;149.036;2024-02-26T06:19:02;3.00;;;1.92;;
40022;SDS011;25713;-35.352;149.036;2024-02-26T06:21:31;3.40;;;2.00;;
40022;SDS011;25713;-35.352;149.036;2024-02-26T06:24:02;5.57;;;2.13;;
40022;SDS011;25713;-35.352;149.036;2024-02-26T06:26:32;6.22;;;1.90;;
40022;SDS011;25713;-35.352;149.036;2024-02-26T06:29:02;4.15;;;2.10;;
40022;SDS011;25713;-35.352;149.036;2024-02-26T06:31:31;3.55;;;2.05;;
40022;SDS011;25713;-35.352;149.036;2024-02-26T06:34:01;3.83;;;2.38;;
40022;SDS011;25713;-35.352;149.036;2024-02-26T06:36:30;4.53;;;2.33;;
40022;SDS011;25713;-35.352;149.036;2024-02-26T06:39:02;2.83;;;2.13;;
40022;SDS011;25713;-35.352;149.036;2024-02-26T06:41:31;6.15;;;2.20;;
40022;SDS011;25713;-35.352;149.036;2024-02-26T06:44:00;4.50;;;2.00;;
40022;SDS011;25713;-35.352;149.036;2024-02-26T06:46:30;4.15;;;1.80;;
40022;SDS011;25713;-35.352;149.036;2024-02-26T06:48:59;5.70;;;2.58;;
40022;SDS011;25713;-35.352;149.036;2024-02-26T06:51:29;4.90;;;2.90;;
40022;SDS011;25713;-35.352;149.036;2024-02-26T06:53:58;4.97;;;2.92;;
40022;SDS011;25713;-35.352;149.036;2024-02-26T06:56:30;9.00;;;3.10;;
40022;SDS011;25713;-35.352;149.036;2024-02-26T06:58:59;7.60;;;3.10;;
40022;SDS011;25713;-35.352;149.036;2024-02-26T07:01:28;8.38;;;3.20;;
40022;SDS011;25713;-35.352;149.036;2024-02-26T07:03:58;6.05;;;3.20;;
40022;SDS011;25713;-35.352;149.036;2024-02-26T07:06:27;9.23;;;3.40;;
40022;SDS011;25713;-35.352;149.036;2024-02-26T07:08:57;8.50;;;3.75;;
40022;SDS011;25713;-35.352;149.036;2024-02-26T07:11:28;9.60;;;3.90;;
40022;SDS011;25713;-35.352;149.036;2024-02-26T07:13:57;8.73;;;3.88;;
40022;SDS011;25713;-35.352;149.036;2024-02-26T07:16:27;8.95;;;4.05;;
40022;SDS011;25713;-35.352;149.036;2024-02-26T07:18:56;9.00;;;4.22;;
40022;SDS011;25713;-35.352;149.036;2024-02-26T07:21:26;7.65;;;3.88;;
40022;SDS011;25713;-35.352;149.036;2024-02-26T07:23:55;7.97;;;3.95;;
40022;SDS011;25713;-35.352;149.036;2024-02-26T07:26:24;7.65;;;3.97;;
40022;SDS011;25713;-35.352;149.036;2024-02-26T07:28:56;7.18;;;3.67;;
40022;SDS011;25713;-35.352;149.036;2024-02-26T07:31:25;11.63;;;4.47;;
40022;SDS011;25713;-35.352;149.036;2024-02-26T07:33:55;9.18;;;4.35;;
40022;SDS011;25713;-35.352;149.036;2024-02-26T07:36:24;8.90;;;4.18;;
40022;SDS011;25713;-35.352;149.036;2024-02-26T07:38:54;8.32;;;4.10;;
40022;SDS011;25713;-35.352;149.036;2024-02-26T07:41:23;9.27;;;4.40;;
40022;SDS011;25713;-35.352;149.036;2024-02-26T07:43:54;10.32;;;4.40;;
40022;SDS011;25713;-35.352;149.036;2024-02-26T07:46:24;11.95;;;4.38;;
40022;SDS011;25713;-35.352;149.036;2024-02-26T07:48:53;8.25;;;4.50;;
40022;SDS011;25713;-35.352;149.036;2024-02-26T07:51:23;9.02;;;4.32;;
40022;SDS011;25713;-35.352;149.036;2024-02-26T07:53:55;8.57;;;4.80;;
40022;SDS011;25713;-35.352;149.036;2024-02-26T07:56:24;12.85;;;4.05;;
40022;SDS011;25713;-35.352;149.036;2024-02-26T07:58:56;13.80;;;4.72;;
40022;SDS011;25713;-35.352;149.036;2024-02-26T08:01:25;12.18;;;4.63;;
40022;SDS011;25713;-35.352;149.036;2024-02-26T08:03:55;10.98;;;4.88;;
40022;SDS011;25713;-35.352;149.036;2024-02-26T08:06:24;11.27;;;4.40;;
40022;SDS011;25713;-35.352;149.036;2024-02-26T08:08:54;14.07;;;5.50;;
40022;SDS011;25713;-35.352;149.036;2024-02-26T08:11:23;8.65;;;4.70;;
40022;SDS011;25713;-35.352;149.036;2024-02-26T08:13:52;13.10;;;5.20;;
40022;SDS011;25713;-35.352;149.036;2024-02-26T08:16:24;15.13;;;5.53;;
40022;SDS011;25713;-35.352;149.036;2024-02-26T08:18:53;10.73;;;5.03;;
40022;SDS011;25713;-35.352;149.036;2024-02-26T08:21:23;15.65;;;5.80;;
40022;SDS011;25713;-35.352;149.036;2024-02-26T08:23:52;13.25;;;5.75;;
40022;SDS011;25713;-35.352;149.036;2024-02-26T08:26:22;9.07;;;5.38;;
40022;SDS011;25713;-35.352;149.036;2024-02-26T08:28:51;10.35;;;5.38;;
40022;SDS011;25713;-35.352;149.036;2024-02-26T08:31:22;12.52;;;5.63;;
40022;SDS011;25713;-35.352;149.036;2024-02-26T08:33:52;13.13;;;5.55;;
40022;SDS011;25713;-35.352;149.036;2024-02-26T08:36:21;13.38;;;5.05;;
40022;SDS011;25713;-35.352;149.036;2024-02-26T08:38:50;8.10;;;5.22;;
40022;SDS011;25713;-35.352;149.036;2024-02-26T08:41:20;8.57;;;5.53;;
40022;SDS011;25713;-35.352;149.036;2024-02-26T08:43:50;11.30;;;5.75;;
40022;SDS011;25713;-35.352;149.036;2024-02-26T08:46:19;12.18;;;5.65;;
40022;SDS011;25713;-35.352;149.036;2024-02-26T08:48:51;10.73;;;6.15;;
40022;SDS011;25713;-35.352;149.036;2024-02-26T08:51:20;10.50;;;6.05;;
40022;SDS011;25713;-35.352;149.036;2024-02-26T08:53:50;8.73;;;5.30;;
40022;SDS011;25713;-35.352;149.036;2024-02-26T08:56:19;12.55;;;5.85;;
40022;SDS011;25713;-35.352;149.036;2024-02-26T08:58:49;10.18;;;5.28;;
40022;SDS011;25713;-35.352;149.036;2024-02-26T09:01:18;12.02;;;6.13;;
40022;SDS011;25713;-35.352;149.036;2024-02-26T09:03:50;10.48;;;5.88;;
40022;SDS011;25713;-35.352;149.036;2024-02-26T09:06:19;10.50;;;6.00;;
40022;SDS011;25713;-35.352;149.036;2024-02-26T09:08:49;13.82;;;5.93;;
40022;SDS011;25713;-35.352;149.036;2024-02-26T09:11:18;11.15;;;5.97;;
40022;SDS011;25713;-35.352;149.036;2024-02-26T09:13:47;8.10;;;5.22;;
40022;SDS011;25713;-35.352;149.036;2024-02-26T09:16:17;10.57;;;6.18;;
40022;SDS011;25713;-35.352;149.036;2024-02-26T09:18:46;10.00;;;5.55;;
40022;SDS011;25713;-35.352;149.036;2024-02-26T09:21:18;9.63;;;5.80;;
40022;SDS011;25713;-35.352;149.036;2024-02-26T09:23:47;10.70;;;5.68;;
40022;SDS011;25713;-35.352;149.036;2024-02-26T09:26:17;8.88;;;4.93;;
40022;SDS011;25713;-35.352;149.036;2024-02-26T09:28:46;7.90;;;5.07;;
40022;SDS011;25713;-35.352;149.036;2024-02-26T09:31:17;8.15;;;5.20;;
40022;SDS011;25713;-35.352;149.036;2024-02-26T09:33:46;9.07;;;4.88;;
40022;SDS011;25713;-35.352;149.036;2024-02-26T09:36:18;5.60;;;4.13;;
40022;SDS011;25713;-35.352;149.036;2024-02-26T09:38:47;8.68;;;4.53;;
40022;SDS011;25713;-35.352;149.036;2024-02-26T09:41:17;7.70;;;4.93;;
40022;SDS011;25713;-35.352;149.036;2024-02-26T09:43:46;9.13;;;4.95;;
40022;SDS011;25713;-35.352;149.036;2024-02-26T09:46:20;8.02;;;4.63;;
40022;SDS011;25713;-35.352;149.036;2024-02-26T09:48:52;8.07;;;4.30;;
40022;SDS011;25713;-35.352;149.036;2024-02-26T09:51:22;10.15;;;4.50;;
40022;SDS011;25713;-35.352;149.036;2024-02-26T09:53:52;6.20;;;4.43;;
40022;SDS011;25713;-35.352;149.036;2024-02-26T09:56:23;6.72;;;4.38;;
40022;SDS011;25713;-35.352;149.036;2024-02-26T09:58:54;5.82;;;4.53;;
40022;SDS011;25713;-35.352;149.036;2024-02-26T10:01:26;7.85;;;4.32;;
40022;SDS011;25713;-35.352;149.036;2024-02-26T10:03:57;7.18;;;3.90;;
40022;SDS011;25713;-35.352;149.036;2024-02-26T10:06:26;5.80;;;4.10;;
40022;SDS011;25713;-35.352;149.036;2024-02-26T10:08:56;5.97;;;4.22;;
40022;SDS011;25713;-35.352;149.036;2024-02-26T10:11:26;5.65;;;3.67;;
40022;SDS011;25713;-35.352;149.036;2024-02-26T10:13:56;8.15;;;4.13;;
40022;SDS011;25713;-35.352;149.036;2024-02-26T10:16:25;9.70;;;4.72;;
40022;SDS011;25713;-35.352;149.036;2024-02-26T10:18:57;5.18;;;3.70;;
40022;SDS011;25713;-35.352;149.036;2024-02-26T10:21:26;6.37;;;3.83;;
40022;SDS011;25713;-35.352;149.036;2024-02-26T10:23:56;5.95;;;3.83;;
40022;SDS011;25713;-35.352;149.036;2024-02-26T10:26:25;7.80;;;3.60;;
40022;SDS011;25713;-35.352;149.036;2024-02-26T10:28:54;6.47;;;3.83;;
40022;SDS011;25713;-35.352;149.036;2024-02-26T10:31:29;5.28;;;3.50;;
40022;SDS011;25713;-35.352;149.036;2024-02-26T10:34:00;6.10;;;3.83;;
40022;SDS011;25713;-35.352;149.036;2024-02-26T10:39:01;7.95;;;3.40;;
40022;SDS011;25713;-35.352;149.036;2024-02-26T10:41:33;5.35;;;3.40;;
40022;SDS011;25713;-35.352;149.036;2024-02-26T10:44:02;3.78;;;3.10;;
40022;SDS011;25713;-35.352;149.036;2024-02-26T10:46:32;4.93;;;3.15;;
40022;SDS011;25713;-35.352;149.036;2024-02-26T10:49:04;4.65;;;2.95;;
40022;SDS011;25713;-35.352;149.036;2024-02-26T10:51:40;3.88;;;2.72;;
40022;SDS011;25713;-35.352;149.036;2024-02-26T10:54:15;5.07;;;3.17;;
40022;SDS011;25713;-35.352;149.036;2024-02-26T10:56:45;4.43;;;2.50;;
40022;SDS011;25713;-35.352;149.036;2024-02-26T10:59:17;4.63;;;2.55;;
40022;SDS011;25713;-35.352;149.036;2024-02-26T11:01:48;4.68;;;2.67;;
40022;SDS011;25713;-35.352;149.036;2024-02-26T11:04:21;3.28;;;2.40;;
40022;SDS011;25713;-35.352;149.036;2024-02-26T11:06:51;2.58;;;2.03;;
40022;SDS011;25713;-35.352;149.036;2024-02-26T11:09:24;2.65;;;2.25;;
40022;SDS011;25713;-35.352;149.036;2024-02-26T11:11:54;4.20;;;2.33;;
40022;SDS011;25713;-35.352;149.036;2024-02-26T11:14:26;3.65;;;2.20;;
40022;SDS011;25713;-35.352;149.036;2024-02-26T11:16:58;2.10;;;1.30;;
40022;SDS011;25713;-35.352;149.036;2024-02-26T11:19:32;2.17;;;1.58;;
40022;SDS011;25713;-35.352;149.036;2024-02-26T11:22:07;1.98;;;1.52;;
40022;SDS011;25713;-35.352;149.036;2024-02-26T11:24:37;3.70;;;1.50;;
40022;SDS011;25713;-35.352;149.036;2024-02-26T11:27:06;2.95;;;1.50;;
40022;SDS011;25713;-35.352;149.036;2024-02-26T11:29:39;2.22;;;1.42;;
40022;SDS011;25713;-35.352;149.036;2024-02-26T11:32:11;2.35;;;1.33;;
40022;SDS011;25713;-35.352;149.036;2024-02-26T11:34:42;1.55;;;1.25;;
40022;SDS011;25713;-35.352;149.036;2024-02-26T11:37:12;1.67;;;1.23;;
40022;SDS011;25713;-35.352;149.036;2024-02-26T11:39:44;1.10;;;0.80;;
40022;SDS011;25713;-35.352;149.036;2024-02-26T11:42:14;1.33;;;0.98;;
40022;SDS011;25713;-35.352;149.036;2024-02-26T11:44:44;2.40;;;0.80;;
40022;SDS011;25713;-35.352;149.036;2024-02-26T11:47:14;0.88;;;0.70;;
40022;SDS011;25713;-35.352;149.036;2024-02-26T11:49:49;1.80;;;0.80;;
40022;SDS011;25713;-35.352;149.036;2024-02-26T11:52:18;1.20;;;0.70;;
40022;SDS011;25713;-35.352;149.036;2024-02-26T11:54:48;0.73;;;0.50;;
40022;SDS011;25713;-35.352;149.036;2024-02-26T11:57:24;1.45;;;0.73;;
40022;SDS011;25713;-35.352;149.036;2024-02-26T11:59:55;1.77;;;0.70;;
40022;SDS011;25713;-35.352;149.036;2024-02-26T12:02:38;1.00;;;0.52;;
40022;SDS011;25713;-35.352;149.036;2024-02-26T12:05:14;1.20;;;0.68;;
40022;SDS011;25713;-35.352;149.036;2024-02-26T12:07:44;0.85;;;0.50;;
40022;SDS011;25713;-35.352;149.036;2024-02-26T12:10:15;1.42;;;0.70;;
40022;SDS011;25713;-35.352;149.036;2024-02-26T12:12:50;0.98;;;0.65;;
40022;SDS011;25713;-35.352;149.036;2024-02-26T12:15:23;0.88;;;0.65;;
40022;SDS011;25713;-35.352;149.036;2024-02-26T12:17:57;1.00;;;0.63;;
40022;SDS011;25713;-35.352;149.036;2024-02-26T12:20:30;1.98;;;0.80;;
40022;SDS011;25713;-35.352;149.036;2024-02-26T12:23:00;1.52;;;0.80;;
40022;SDS011;25713;-35.352;149.036;2024-02-26T12:25:31;2.15;;;0.90;;
40022;SDS011;25713;-35.352;149.036;2024-02-26T12:28:00;1.77;;;0.70;;
40022;SDS011;25713;-35.352;149.036;2024-02-26T12:30:30;3.03;;;0.80;;
40022;SDS011;25713;-35.352;149.036;2024-02-26T12:33:01;3.37;;;1.10;;
40022;SDS011;25713;-35.352;149.036;2024-02-26T12:35:33;5.03;;;1.23;;
40022;SDS011;25713;-35.352;149.036;2024-02-26T12:38:04;2.90;;;1.35;;
40022;SDS011;25713;-35.352;149.036;2024-02-26T12:40:33;2.97;;;1.00;;
40022;SDS011;25713;-35.352;149.036;2024-02-26T12:43:03;2.92;;;1.20;;
40022;SDS011;25713;-35.352;149.036;2024-02-26T12:45:32;2.90;;;1.20;;
40022;SDS011;25713;-35.352;149.036;2024-02-26T12:48:02;3.85;;;1.10;;
40022;SDS011;25713;-35.352;149.036;2024-02-26T12:53:04;3.40;;;1.35;;
40022;SDS011;25713;-35.352;149.036;2024-02-26T12:55:34;4.60;;;1.60;;
40022;SDS011;25713;-35.352;149.036;2024-02-26T12:58:04;2.13;;;1.05;;
40022;SDS011;25713;-35.352;149.036;2024-02-26T13:00:33;3.90;;;1.38;;
40022;SDS011;25713;-35.352;149.036;2024-02-26T13:03:03;4.43;;;1.40;;
40022;SDS011;25713;-35.352;149.036;2024-02-26T13:05:33;2.70;;;1.10;;
40022;SDS011;25713;-35.352;149.036;2024-02-26T13:08:05;2.15;;;1.20;;
40022;SDS011;25713;-35.352;149.036;2024-02-26T13:10:34;4.15;;;1.50;;
40022;SDS011;25713;-35.352;149.036;2024-02-26T13:13:04;4.40;;;1.50;;
40022;SDS011;25713;-35.352;149.036;2024-02-26T13:15:34;3.03;;;1.27;;
40022;SDS011;25713;-35.352;149.036;2024-02-26T13:18:09;4.35;;;1.30;;
40022;SDS011;25713;-35.352;149.036;2024-02-26T13:20:41;5.40;;;2.15;;
40022;SDS011;25713;-35.352;149.036;2024-02-26T13:23:11;2.78;;;1.45;;
40022;SDS011;25713;-35.352;149.036;2024-02-26T13:25:41;2.88;;;1.23;;
40022;SDS011;25713;-35.352;149.036;2024-02-26T13:28:12;4.32;;;1.40;;
40022;SDS011;25713;-35.352;149.036;2024-02-26T13:33:18;5.22;;;1.45;;
40022;SDS011;25713;-35.352;149.036;2024-02-26T13:35:50;3.55;;;1.30;;
40022;SDS011;25713;-35.352;149.036;2024-02-26T13:38:20;3.85;;;1.30;;
40022;SDS011;25713;-35.352;149.036;2024-02-26T13:40:49;3.22;;;1.38;;
40022;SDS011;25713;-35.352;149.036;2024-02-26T13:43:19;3.10;;;1.27;;
40022;SDS011;25713;-35.352;149.036;2024-02-26T13:45:49;3.53;;;1.10;;
40022;SDS011;25713;-35.352;149.036;2024-02-26T13:48:18;3.25;;;1.35;;
40022;SDS011;25713;-35.352;149.036;2024-02-26T13:50:49;2.38;;;1.30;;
40022;SDS011;25713;-35.352;149.036;2024-02-26T13:53:19;3.60;;;1.27;;
40022;SDS011;25713;-35.352;149.036;2024-02-26T13:55:48;2.10;;;1.00;;
40022;SDS011;25713;-35.352;149.036;2024-02-26T13:58:18;4.80;;;1.63;;
40022;SDS011;25713;-35.352;149.036;2024-02-26T14:00:47;4.13;;;1.13;;
40022;SDS011;25713;-35.352;149.036;2024-02-26T14:03:17;5.10;;;1.02;;
40022;SDS011;25713;-35.352;149.036;2024-02-26T14:05:46;2.90;;;1.10;;
40022;SDS011;25713;-35.352;149.036;2024-02-26T14:08:18;2.25;;;1.00;;
40022;SDS011;25713;-35.352;149.036;2024-02-26T14:10:47;1.60;;;0.75;;
40022;SDS011;25713;-35.352;149.036;2024-02-26T14:13:17;3.15;;;1.10;;
40022;SDS011;25713;-35.352;149.036;2024-02-26T14:15:46;2.58;;;1.10;;
40022;SDS011;25713;-35.352;149.036;2024-02-26T14:18:15;1.60;;;0.95;;
40022;SDS011;25713;-35.352;149.036;2024-02-26T14:20:45;1.77;;;0.80;;
40022;SDS011;25713;-35.352;149.036;2024-02-26T14:23:17;1.45;;;0.70;;
40022;SDS011;25713;-35.352;149.036;2024-02-26T14:25:46;3.75;;;0.95;;
40022;SDS011;25713;-35.352;149.036;2024-02-26T14:28:16;1.20;;;0.70;;
40022;SDS011;25713;-35.352;149.036;2024-02-26T14:30:45;1.77;;;0.80;;
40022;SDS011;25713;-35.352;149.036;2024-02-26T14:33:15;2.13;;;0.90;;